AYN7667 UAAA-UAIT
Flight info
| Callsign | AYN7667 |
|---|---|
| Flight time | 1h 13m |
| Altitude | 36000 |
| Route | TIPSA M610 ARBOL Z621 ARVAR ARVAR1A |
| Aircraft | A320/M-SDE3FGHIRWY/LB1 |
Departure
| Time | 2026-04-24 15:55 |
|---|---|
| Airport | Almaty International Airport (UAAA) |
Arrival
| Time | 2026-04-24 17:08 |
|---|---|
| Airport | Hazrat Sultan International Airport (UAIT) |
| Time | Latitude | Longitude | Altitude | Speed | Heading |
|---|---|---|---|---|---|
| 2026-04-24 15:54 | 43.48760 | 77.13978 | 9197 ft | 285 kts | 327° |
| 2026-04-24 15:55 | 43.50474 | 77.12571 | 10077 ft | 288 kts | 326° |
| 2026-04-24 15:55 | 43.52071 | 77.10905 | 10860 ft | 288 kts | 314° |
| 2026-04-24 15:55 | 43.53349 | 77.08791 | 11684 ft | 287 kts | 300° |
| 2026-04-24 15:55 | 43.54154 | 77.06251 | 12504 ft | 287 kts | 283° |
| 2026-04-24 15:56 | 43.54418 | 77.03455 | 12852 ft | 305 kts | 273° |
| 2026-04-24 15:56 | 43.54553 | 77.00440 | 13141 ft | 323 kts | 272° |
| 2026-04-24 15:56 | 43.54481 | 76.97317 | 13760 ft | 329 kts | 261° |
| 2026-04-24 15:56 | 43.53894 | 76.94264 | 14436 ft | 332 kts | 250° |
| 2026-04-24 15:57 | 43.52831 | 76.91421 | 15088 ft | 337 kts | 238° |
| 2026-04-24 15:57 | 43.51511 | 76.88739 | 15733 ft | 340 kts | 238° |
| 2026-04-24 15:57 | 43.50177 | 76.86038 | 16368 ft | 342 kts | 238° |
| 2026-04-24 15:57 | 43.48832 | 76.83311 | 17002 ft | 345 kts | 238° |
| 2026-04-24 15:58 | 43.47478 | 76.80569 | 17621 ft | 349 kts | 238° |
| 2026-04-24 15:58 | 43.46106 | 76.77792 | 18238 ft | 352 kts | 238° |
| 2026-04-24 15:58 | 43.44723 | 76.74997 | 18810 ft | 355 kts | 238° |
| 2026-04-24 15:58 | 43.43328 | 76.72180 | 19386 ft | 357 kts | 238° |
| 2026-04-24 15:59 | 43.41921 | 76.69342 | 19976 ft | 360 kts | 238° |
| 2026-04-24 15:59 | 43.40510 | 76.66496 | 20554 ft | 362 kts | 238° |
| 2026-04-24 15:59 | 43.39088 | 76.63625 | 21116 ft | 364 kts | 238° |
| 2026-04-24 15:59 | 43.37660 | 76.60738 | 21655 ft | 366 kts | 238° |
| 2026-04-24 16:00 | 43.36221 | 76.57829 | 22192 ft | 369 kts | 238° |
| 2026-04-24 16:00 | 43.34773 | 76.54914 | 22716 ft | 371 kts | 238° |
| 2026-04-24 16:00 | 43.33311 | 76.51978 | 23251 ft | 373 kts | 238° |
| 2026-04-24 16:00 | 43.31838 | 76.49026 | 23743 ft | 376 kts | 238° |
| 2026-04-24 16:01 | 43.30355 | 76.46060 | 24187 ft | 378 kts | 237° |
| 2026-04-24 16:01 | 43.28964 | 76.42997 | 24623 ft | 378 kts | 245° |
| 2026-04-24 16:01 | 43.27997 | 76.39594 | 25069 ft | 379 kts | 255° |
| 2026-04-24 16:01 | 43.27531 | 76.36034 | 25498 ft | 381 kts | 265° |
| 2026-04-24 16:02 | 43.27491 | 76.32387 | 25936 ft | 383 kts | 269° |
| 2026-04-24 16:02 | 43.27501 | 76.28719 | 26368 ft | 385 kts | 268° |
| 2026-04-24 16:02 | 43.27503 | 76.25033 | 26782 ft | 387 kts | 268° |
| 2026-04-24 16:02 | 43.27499 | 76.21335 | 27185 ft | 389 kts | 268° |
| 2026-04-24 16:03 | 43.27490 | 76.17612 | 27597 ft | 391 kts | 268° |
| 2026-04-24 16:03 | 43.27477 | 76.13869 | 28014 ft | 393 kts | 268° |
| 2026-04-24 16:03 | 43.27463 | 76.10110 | 28434 ft | 395 kts | 268° |
| 2026-04-24 16:03 | 43.27451 | 76.06324 | 28851 ft | 398 kts | 267° |
| 2026-04-24 16:04 | 43.27524 | 76.02527 | 29249 ft | 401 kts | 273° |
| 2026-04-24 16:04 | 43.28037 | 75.98732 | 29648 ft | 408 kts | 282° |
| 2026-04-24 16:04 | 43.28844 | 75.94991 | 30033 ft | 410 kts | 282° |
| 2026-04-24 16:04 | 43.29661 | 75.91221 | 30375 ft | 413 kts | 282° |
| 2026-04-24 16:05 | 43.31292 | 75.83627 | 31027 ft | 417 kts | 282° |
| 2026-04-24 16:05 | 43.32109 | 75.79814 | 31480 ft | 416 kts | 282° |
| 2026-04-24 16:06 | 43.33732 | 75.72230 | 32443 ft | 412 kts | 282° |
| 2026-04-24 16:06 | 43.34532 | 75.68453 | 32933 ft | 411 kts | 281° |
| 2026-04-24 16:06 | 43.36114 | 75.60946 | 33897 ft | 408 kts | 281° |
| 2026-04-24 16:07 | 43.36903 | 75.57211 | 34349 ft | 407 kts | 281° |
| 2026-04-24 16:07 | 43.37520 | 75.53443 | 34730 ft | 401 kts | 273° |
| 2026-04-24 16:07 | 43.37928 | 75.45845 | 35451 ft | 398 kts | 270° |
| 2026-04-24 16:08 | 43.38114 | 75.42046 | 35800 ft | 398 kts | 270° |
| 2026-04-24 16:08 | 43.38490 | 75.34444 | 36094 ft | 399 kts | 270° |
| 2026-04-24 16:09 | 43.39033 | 75.22956 | 36095 ft | 400 kts | 270° |
| 2026-04-24 16:09 | 43.39398 | 75.15332 | 36096 ft | 400 kts | 270° |
| 2026-04-24 16:11 | 43.40288 | 74.96246 | 36095 ft | 400 kts | 270° |
| 2026-04-24 16:11 | 43.40641 | 74.88603 | 36101 ft | 401 kts | 270° |
| 2026-04-24 16:12 | 43.41140 | 74.77119 | 36101 ft | 401 kts | 269° |
| 2026-04-24 16:13 | 43.41632 | 74.65625 | 36101 ft | 401 kts | 269° |
| 2026-04-24 16:14 | 43.42288 | 74.50314 | 36090 ft | 401 kts | 269° |
| 2026-04-24 16:14 | 43.42748 | 74.38847 | 36086 ft | 400 kts | 269° |
| 2026-04-24 16:15 | 43.43201 | 74.27377 | 36082 ft | 400 kts | 269° |
| 2026-04-24 16:16 | 43.43648 | 74.15852 | 36078 ft | 400 kts | 269° |
| 2026-04-24 16:17 | 43.44370 | 73.96723 | 36076 ft | 400 kts | 269° |
| 2026-04-24 16:18 | 43.44919 | 73.81426 | 36073 ft | 400 kts | 269° |
| 2026-04-24 16:19 | 43.45268 | 73.71254 | 36073 ft | 400 kts | 269° |
| 2026-04-24 16:20 | 43.45656 | 73.59789 | 36070 ft | 399 kts | 269° |
| 2026-04-24 16:20 | 43.46039 | 73.48289 | 36071 ft | 399 kts | 269° |
| 2026-04-24 16:21 | 43.46401 | 73.36837 | 36074 ft | 399 kts | 269° |
| 2026-04-24 16:22 | 43.46639 | 73.29204 | 36069 ft | 399 kts | 269° |
| 2026-04-24 16:22 | 43.46998 | 73.17751 | 36069 ft | 399 kts | 269° |
| 2026-04-24 16:23 | 43.47219 | 73.10117 | 36070 ft | 399 kts | 268° |
| 2026-04-24 16:24 | 43.47531 | 72.98659 | 36072 ft | 400 kts | 268° |
| 2026-04-24 16:24 | 43.47745 | 72.91015 | 36074 ft | 400 kts | 268° |
| 2026-04-24 16:25 | 43.47954 | 72.83371 | 36073 ft | 400 kts | 268° |
| 2026-04-24 16:25 | 43.48161 | 72.75714 | 36074 ft | 400 kts | 268° |
| 2026-04-24 16:26 | 43.48459 | 72.64232 | 36078 ft | 400 kts | 268° |
| 2026-04-24 16:27 | 43.48738 | 72.52740 | 36074 ft | 400 kts | 268° |
| 2026-04-24 16:27 | 43.48919 | 72.45083 | 36078 ft | 400 kts | 268° |
| 2026-04-24 16:28 | 43.49094 | 72.37420 | 36075 ft | 400 kts | 268° |
| 2026-04-24 16:28 | 43.49348 | 72.25935 | 36078 ft | 400 kts | 268° |
| 2026-04-24 16:29 | 43.49517 | 72.18230 | 36077 ft | 400 kts | 268° |
| 2026-04-24 16:30 | 43.49830 | 72.02923 | 36080 ft | 400 kts | 268° |
| 2026-04-24 16:30 | 43.49976 | 71.95274 | 36077 ft | 400 kts | 268° |
| 2026-04-24 16:31 | 43.50116 | 71.87627 | 36081 ft | 399 kts | 268° |
| 2026-04-24 16:31 | 43.50251 | 71.79975 | 36080 ft | 400 kts | 268° |
| 2026-04-24 16:32 | 43.50389 | 71.72327 | 36077 ft | 400 kts | 268° |
| 2026-04-24 16:32 | 43.50519 | 71.64666 | 36073 ft | 400 kts | 267° |
| 2026-04-24 16:33 | 43.50631 | 71.57010 | 36072 ft | 400 kts | 267° |
| 2026-04-24 16:33 | 43.50745 | 71.49352 | 36057 ft | 400 kts | 267° |
| 2026-04-24 16:34 | 43.50866 | 71.41689 | 36064 ft | 400 kts | 267° |
| 2026-04-24 16:34 | 43.50979 | 71.34012 | 36068 ft | 401 kts | 267° |
| 2026-04-24 16:35 | 43.51082 | 71.26425 | 36071 ft | 401 kts | 267° |
| 2026-04-24 16:35 | 43.51181 | 71.18696 | 36075 ft | 401 kts | 267° |
| 2026-04-24 16:36 | 43.51273 | 71.11021 | 36076 ft | 401 kts | 267° |
| 2026-04-24 16:36 | 43.51360 | 71.03350 | 36074 ft | 400 kts | 266° |
| 2026-04-24 16:37 | 43.51439 | 70.95680 | 36073 ft | 400 kts | 266° |
| 2026-04-24 16:37 | 43.51512 | 70.88012 | 36069 ft | 400 kts | 266° |
| 2026-04-24 16:38 | 43.51093 | 70.80417 | 36073 ft | 397 kts | 260° |
| 2026-04-24 16:38 | 43.50503 | 70.72847 | 36073 ft | 397 kts | 261° |
| 2026-04-24 16:39 | 43.49918 | 70.65271 | 36068 ft | 397 kts | 261° |
| 2026-04-24 16:39 | 43.49327 | 70.57704 | 36059 ft | 398 kts | 260° |
| 2026-04-24 16:40 | 43.49028 | 70.53909 | 35822 ft | 398 kts | 260° |
| 2026-04-24 16:40 | 43.48725 | 70.50125 | 35577 ft | 398 kts | 260° |
| 2026-04-24 16:40 | 43.48421 | 70.46342 | 35334 ft | 398 kts | 260° |
| 2026-04-24 16:40 | 43.48113 | 70.42500 | 35088 ft | 398 kts | 260° |
| 2026-04-24 16:41 | 43.47813 | 70.38760 | 34852 ft | 399 kts | 260° |
| 2026-04-24 16:41 | 43.47504 | 70.34914 | 34614 ft | 399 kts | 260° |
| 2026-04-24 16:41 | 43.47197 | 70.31120 | 34377 ft | 399 kts | 260° |
| 2026-04-24 16:41 | 43.46885 | 70.27319 | 34070 ft | 400 kts | 260° |
| 2026-04-24 16:42 | 43.46571 | 70.23512 | 33407 ft | 399 kts | 260° |
| 2026-04-24 16:42 | 43.46264 | 70.19745 | 32989 ft | 393 kts | 259° |
| 2026-04-24 16:42 | 43.45961 | 70.16034 | 32513 ft | 388 kts | 259° |
| 2026-04-24 16:42 | 43.45659 | 70.12361 | 32050 ft | 384 kts | 259° |
| 2026-04-24 16:43 | 43.45355 | 70.08727 | 31588 ft | 380 kts | 259° |
| 2026-04-24 16:43 | 43.45054 | 70.05139 | 31126 ft | 376 kts | 259° |
| 2026-04-24 16:43 | 43.44755 | 70.01583 | 30662 ft | 372 kts | 259° |
| 2026-04-24 16:43 | 43.44457 | 69.98063 | 30214 ft | 369 kts | 259° |
| 2026-04-24 16:44 | 43.44161 | 69.94564 | 29712 ft | 366 kts | 259° |
| 2026-04-24 16:44 | 43.43869 | 69.91110 | 29263 ft | 361 kts | 259° |
| 2026-04-24 16:44 | 43.43583 | 69.87707 | 28823 ft | 356 kts | 259° |
| 2026-04-24 16:44 | 43.43298 | 69.84344 | 28385 ft | 351 kts | 259° |
| 2026-04-24 16:45 | 43.43013 | 69.81023 | 27971 ft | 348 kts | 259° |
| 2026-04-24 16:45 | 43.42726 | 69.77732 | 27554 ft | 345 kts | 259° |
| 2026-04-24 16:45 | 43.42442 | 69.74469 | 27122 ft | 343 kts | 259° |
| 2026-04-24 16:45 | 43.42164 | 69.71217 | 26671 ft | 342 kts | 260° |
| 2026-04-24 16:46 | 43.41893 | 69.67977 | 26230 ft | 341 kts | 260° |
| 2026-04-24 16:46 | 43.41624 | 69.64709 | 25803 ft | 338 kts | 260° |
| 2026-04-24 16:46 | 43.41363 | 69.61538 | 25387 ft | 337 kts | 260° |
| 2026-04-24 16:46 | 43.41097 | 69.58309 | 24971 ft | 335 kts | 260° |
| 2026-04-24 16:47 | 43.40834 | 69.55137 | 24565 ft | 333 kts | 260° |
| 2026-04-24 16:47 | 43.40569 | 69.51981 | 24154 ft | 331 kts | 260° |
| 2026-04-24 16:47 | 43.40302 | 69.48839 | 23740 ft | 330 kts | 260° |
| 2026-04-24 16:47 | 43.40035 | 69.45714 | 23282 ft | 329 kts | 261° |
| 2026-04-24 16:48 | 43.39768 | 69.42597 | 22848 ft | 326 kts | 261° |
| 2026-04-24 16:48 | 43.39504 | 69.39511 | 22426 ft | 324 kts | 261° |
| 2026-04-24 16:48 | 43.39240 | 69.36444 | 21997 ft | 322 kts | 261° |
| 2026-04-24 16:48 | 43.38975 | 69.33396 | 21563 ft | 320 kts | 261° |
| 2026-04-24 16:49 | 43.38710 | 69.30360 | 21126 ft | 319 kts | 261° |
| 2026-04-24 16:49 | 43.38448 | 69.27341 | 20684 ft | 318 kts | 261° |
| 2026-04-24 16:49 | 43.38186 | 69.24320 | 20240 ft | 318 kts | 261° |
| 2026-04-24 16:49 | 43.37924 | 69.21296 | 19790 ft | 318 kts | 261° |
| 2026-04-24 16:50 | 43.37836 | 69.20277 | 19640 ft | 318 kts | 261° |
| 2026-04-24 16:50 | 43.37013 | 69.15392 | 18899 ft | 316 kts | 247° |
| 2026-04-24 16:50 | 43.36455 | 69.13499 | 18597 ft | 316 kts | 247° |
| 2026-04-24 16:50 | 43.35634 | 69.10690 | 18122 ft | 317 kts | 248° |
| 2026-04-24 16:51 | 43.34819 | 69.07883 | 17647 ft | 316 kts | 248° |
| 2026-04-24 16:51 | 43.34004 | 69.05080 | 17195 ft | 315 kts | 248° |
| 2026-04-24 16:51 | 43.33194 | 69.02290 | 16761 ft | 314 kts | 248° |
| 2026-04-24 16:51 | 43.32385 | 68.99510 | 16316 ft | 313 kts | 248° |
| 2026-04-24 16:52 | 43.31576 | 68.96733 | 15853 ft | 313 kts | 248° |
| 2026-04-24 16:52 | 43.30767 | 68.93956 | 15426 ft | 313 kts | 248° |
| 2026-04-24 16:52 | 43.29957 | 68.91185 | 14980 ft | 313 kts | 248° |
| 2026-04-24 16:52 | 43.29138 | 68.88378 | 14541 ft | 313 kts | 248° |
| 2026-04-24 16:53 | 43.28329 | 68.85605 | 14095 ft | 313 kts | 248° |
| 2026-04-24 16:53 | 43.27526 | 68.82862 | 13637 ft | 314 kts | 247° |
| 2026-04-24 16:53 | 43.26702 | 68.80052 | 13186 ft | 313 kts | 248° |
| 2026-04-24 16:53 | 43.25890 | 68.77288 | 12735 ft | 312 kts | 247° |
| 2026-04-24 16:54 | 43.25077 | 68.74533 | 12282 ft | 311 kts | 248° |
| 2026-04-24 16:54 | 43.24267 | 68.71785 | 11847 ft | 311 kts | 248° |
| 2026-04-24 16:54 | 43.23458 | 68.69039 | 11422 ft | 310 kts | 248° |
| 2026-04-24 16:54 | 43.22653 | 68.66302 | 11003 ft | 310 kts | 248° |
| 2026-04-24 16:55 | 43.21847 | 68.63565 | 10563 ft | 309 kts | 248° |
| 2026-04-24 16:55 | 43.21044 | 68.60838 | 10217 ft | 306 kts | 248° |
| 2026-04-24 16:55 | 43.20259 | 68.58182 | 10096 ft | 296 kts | 248° |
| 2026-04-24 16:55 | 43.19497 | 68.55613 | 9928 ft | 287 kts | 248° |
| 2026-04-24 16:56 | 43.18744 | 68.53078 | 9443 ft | 290 kts | 248° |
| 2026-04-24 16:56 | 43.17987 | 68.50537 | 9182 ft | 285 kts | 248° |
| 2026-04-24 16:56 | 43.17239 | 68.48027 | 8835 ft | 283 kts | 248° |
| 2026-04-24 16:56 | 43.16559 | 68.45510 | 8593 ft | 279 kts | 256° |
| 2026-04-24 16:57 | 43.16253 | 68.42905 | 8466 ft | 277 kts | 265° |
| 2026-04-24 16:57 | 43.16184 | 68.40278 | 8340 ft | 276 kts | 270° |
| 2026-04-24 16:57 | 43.16279 | 68.37651 | 8213 ft | 276 kts | 275° |
| 2026-04-24 16:57 | 43.16696 | 68.35081 | 7758 ft | 283 kts | 295° |
| 2026-04-24 16:58 | 43.17996 | 68.33008 | 7000 ft | 296 kts | 327° |
| 2026-04-24 16:58 | 43.19973 | 68.32166 | 6222 ft | 299 kts | 359° |
| 2026-04-24 16:58 | 43.21968 | 68.32874 | 5412 ft | 301 kts | 31° |
| 2026-04-24 16:58 | 43.23573 | 68.34665 | 4958 ft | 288 kts | 40° |
| 2026-04-24 16:59 | 43.25279 | 68.35943 | 5001 ft | 278 kts | 14° |
| 2026-04-24 16:59 | 43.27152 | 68.36016 | 5005 ft | 264 kts | 345° |
| 2026-04-24 16:59 | 43.30067 | 68.33528 | 5008 ft | 241 kts | 301° |
| 2026-04-24 17:00 | 43.30608 | 68.31402 | 5010 ft | 237 kts | 274° |
| 2026-04-24 17:00 | 43.29751 | 68.27145 | 5005 ft | 235 kts | 249° |
| 2026-04-24 17:00 | 43.29222 | 68.25024 | 5008 ft | 235 kts | 248° |
| 2026-04-24 17:01 | 43.26974 | 68.22109 | 4797 ft | 222 kts | 194° |
| 2026-04-24 17:01 | 43.25445 | 68.22005 | 4734 ft | 218 kts | 169° |
| 2026-04-24 17:02 | 43.23033 | 68.24358 | 4626 ft | 222 kts | 125° |
| 2026-04-24 17:02 | 43.22158 | 68.26098 | 4569 ft | 222 kts | 126° |
| 2026-04-24 17:02 | 43.21278 | 68.27837 | 4531 ft | 222 kts | 126° |
| 2026-04-24 17:02 | 43.20401 | 68.29580 | 4477 ft | 222 kts | 123° |
| 2026-04-24 17:03 | 43.20331 | 68.33507 | 4334 ft | 211 kts | 60° |
| 2026-04-24 17:03 | 43.21162 | 68.35180 | 4020 ft | 214 kts | 56° |
| 2026-04-24 17:03 | 43.21994 | 68.36807 | 3762 ft | 201 kts | 57° |
| 2026-04-24 17:04 | 43.22762 | 68.38330 | 3492 ft | 186 kts | 57° |
| 2026-04-24 17:04 | 43.24068 | 68.40934 | 3039 ft | 152 kts | 58° |
| 2026-04-24 17:04 | 43.24653 | 68.42104 | 2846 ft | 147 kts | 58° |
| 2026-04-24 17:05 | 43.25229 | 68.43255 | 2662 ft | 148 kts | 58° |
| 2026-04-24 17:05 | 43.25828 | 68.44454 | 2466 ft | 155 kts | 58° |
| 2026-04-24 17:05 | 43.27025 | 68.46846 | 2054 ft | 144 kts | 58° |
| 2026-04-24 17:06 | 43.27578 | 68.47952 | 1866 ft | 138 kts | 58° |
| 2026-04-24 17:06 | 43.28622 | 68.50033 | 1519 ft | 134 kts | 55° |
| 2026-04-24 17:06 | 43.29141 | 68.51098 | 1360 ft | 134 kts | 57° |
| 2026-04-24 17:07 | 43.29476 | 68.51810 | 1245 ft | 134 kts | 54° |
| 2026-04-24 17:07 | 43.30203 | 68.53216 | 988 ft | 135 kts | 54° |
| 2026-04-24 17:07 | 43.31024 | 68.54867 | 917 ft | 62 kts | 55° |
| 2026-04-24 17:08 | 43.31296 | 68.55416 | 916 ft | 22 kts | 56° |
| 2026-04-24 17:08 | 43.31359 | 68.55543 | 916 ft | 17 kts | 55° |
| 2026-04-24 17:08 | 43.31458 | 68.55566 | 919 ft | 17 kts | 325° |
| 2026-04-24 17:09 | 43.31636 | 68.55396 | 921 ft | 11 kts | 325° |
| 2026-04-24 17:09 | 43.31585 | 68.55179 | 921 ft | 16 kts | 237° |
| 2026-04-24 17:10 | 43.31520 | 68.55041 | 922 ft | 19 kts | 237° |
| 2026-04-24 17:10 | 43.31452 | 68.54905 | 921 ft | 1 kts | 236° |
| 2026-04-24 17:11 | 43.31475 | 68.54833 | 922 ft | 5 kts | 327° |
| 2026-04-24 17:12 | 43.31527 | 68.54782 | 922 ft | 0 kts | 326° |